createdAt,value
2019-02-21T00:02:02.382Z,65.70
2019-02-21T00:04:30.624Z,66.00
2019-02-21T00:06:58.847Z,66.30
2019-02-21T00:09:27.085Z,66.80
2019-02-21T00:11:55.302Z,66.90
2019-02-21T00:14:23.556Z,67.10
2019-02-21T00:16:51.782Z,66.80
2019-02-21T00:19:20.018Z,66.90
2019-02-21T00:21:48.597Z,66.50
2019-02-21T00:24:17.112Z,67.00
2019-02-21T00:26:45.337Z,67.60
2019-02-21T00:29:13.580Z,66.80
2019-02-21T00:31:41.814Z,67.20
2019-02-21T00:34:10.054Z,67.70
2019-02-21T00:36:38.276Z,67.90
2019-02-21T00:39:06.757Z,68.70
2019-02-21T00:41:35.157Z,68.80
2019-02-21T00:44:03.377Z,69.50
2019-02-21T00:46:31.973Z,69.00
2019-02-21T00:49:00.503Z,69.10
2019-02-21T00:51:28.729Z,69.40
2019-02-21T00:53:56.964Z,69.00
2019-02-21T00:56:25.204Z,69.00
2019-02-21T00:58:53.676Z,69.00
2019-02-21T01:01:21.892Z,67.90
2019-02-21T01:03:50.128Z,67.10
2019-02-21T01:06:18.344Z,66.90
2019-02-21T01:08:48.044Z,67.30
2019-02-21T01:11:16.270Z,66.80
2019-02-21T01:13:44.502Z,66.60
2019-02-21T01:16:12.727Z,66.80
2019-02-21T01:18:41.111Z,66.80
2019-02-21T01:21:09.380Z,67.00
2019-02-21T01:23:37.641Z,67.90
2019-02-21T01:26:05.898Z,68.20
2019-02-21T01:28:34.111Z,67.80
2019-02-21T01:31:02.644Z,68.10
2019-02-21T01:33:30.851Z,67.90
2019-02-21T01:35:59.164Z,68.40
2019-02-21T01:38:27.363Z,68.10
2019-02-21T01:40:55.595Z,67.60
2019-02-21T01:43:23.824Z,67.30
2019-02-21T01:45:52.055Z,67.50
2019-02-21T01:48:20.556Z,68.40
2019-02-21T01:50:48.803Z,70.10
2019-02-21T01:53:17.023Z,70.10
2019-02-21T01:55:45.251Z,70.40
2019-02-21T01:58:13.476Z,69.20
2019-02-21T02:00:41.723Z,68.60
2019-02-21T02:03:09.945Z,68.60
2019-02-21T02:05:38.182Z,69.20
2019-02-21T02:08:06.484Z,69.50
2019-02-21T02:10:34.720Z,69.60
2019-02-21T02:13:03.243Z,69.10
2019-02-21T02:15:31.471Z,68.80
2019-02-21T02:17:59.997Z,68.70
2019-02-21T02:20:28.247Z,68.50
2019-02-21T02:22:56.480Z,68.60
2019-02-21T02:25:24.716Z,69.30
2019-02-21T02:27:52.943Z,69.10
2019-02-21T02:30:21.193Z,69.60
2019-02-21T02:32:49.671Z,69.40
2019-02-21T02:35:17.899Z,69.30
2019-02-21T02:37:46.124Z,69.30
2019-02-21T02:40:14.634Z,69.20
2019-02-21T02:42:42.856Z,69.60
2019-02-21T02:45:11.084Z,70.00
2019-02-21T02:47:39.602Z,70.40
2019-02-21T02:50:08.208Z,71.00
2019-02-21T02:52:36.428Z,72.00
2019-02-21T02:55:05.333Z,71.20
2019-02-21T02:57:33.561Z,71.40
2019-02-21T03:00:01.800Z,71.20
2019-02-21T03:02:30.021Z,71.30
2019-02-21T03:04:58.263Z,70.30
2019-02-21T03:07:26.484Z,70.20
2019-02-21T03:09:54.730Z,71.00
2019-02-21T03:12:22.931Z,71.00
2019-02-21T03:14:51.207Z,71.20
2019-02-21T03:17:19.784Z,71.40
2019-02-21T03:19:48.009Z,71.10
2019-02-21T03:22:16.241Z,69.80
2019-02-21T03:24:44.469Z,69.60
2019-02-21T03:27:12.839Z,69.50
2019-02-21T03:29:41.447Z,70.30
2019-02-21T03:32:09.681Z,69.80
2019-02-21T03:34:38.259Z,69.90
2019-02-21T03:37:06.502Z,69.60
2019-02-21T03:39:34.710Z,69.60
2019-02-21T03:42:02.968Z,69.90
2019-02-21T03:44:31.241Z,70.00
2019-02-21T03:46:59.483Z,69.60
2019-02-21T03:49:27.697Z,70.30
2019-02-21T03:51:55.949Z,69.40
2019-02-21T03:54:24.148Z,69.20
2019-02-21T03:56:52.384Z,68.90
2019-02-21T03:59:20.925Z,68.90
2019-02-21T04:01:49.435Z,69.00
2019-02-21T04:04:17.655Z,68.90
2019-02-21T04:06:45.888Z,69.40
2019-02-21T04:09:14.119Z,69.60
2019-02-21T04:11:42.355Z,69.80
2019-02-21T04:14:10.961Z,69.20
2019-02-21T04:16:39.270Z,69.20
2019-02-21T04:19:07.486Z,69.20
2019-02-21T04:21:35.718Z,70.10
2019-02-21T04:24:03.938Z,71.30
2019-02-21T04:26:32.189Z,72.00
2019-02-21T04:29:00.393Z,72.30
2019-02-21T04:31:28.624Z,71.90
2019-02-21T04:33:56.852Z,71.70
2019-02-21T04:36:25.360Z,71.60
2019-02-21T04:38:53.584Z,71.40
2019-02-21T04:41:21.834Z,70.80
2019-02-21T04:43:50.072Z,70.10
2019-02-21T04:46:18.624Z,70.90
2019-02-21T04:48:46.837Z,70.10
2019-02-21T04:51:15.072Z,71.50
2019-02-21T04:53:43.291Z,73.10
2019-02-21T04:56:11.531Z,73.30
2019-02-21T04:58:39.747Z,73.40
2019-02-21T05:01:07.981Z,72.00
2019-02-21T05:03:36.214Z,71.60
2019-02-21T05:06:04.429Z,71.80
2019-02-21T05:08:32.655Z,72.10
2019-02-21T05:11:00.884Z,72.70
2019-02-21T05:13:29.134Z,72.70
2019-02-21T05:15:57.349Z,72.60
2019-02-21T05:18:25.576Z,72.50
2019-02-21T05:20:53.793Z,71.60
2019-02-21T05:23:22.031Z,71.10
2019-02-21T05:25:50.250Z,71.00
2019-02-21T05:28:22.853Z,69.30
2019-02-21T05:30:52.716Z,69.80
2019-02-21T05:33:38.237Z,69.10
2019-02-21T05:36:08.385Z,69.20
2019-02-21T05:38:47.349Z,69.10
2019-02-21T05:41:17.236Z,70.40
2019-02-21T05:43:47.119Z,70.30
2019-02-21T05:46:35.627Z,70.20
2019-02-21T05:49:05.496Z,71.00
2019-02-21T05:54:35.849Z,70.60
2019-02-21T05:57:08.677Z,71.20
2019-02-21T05:59:41.515Z,70.80
2019-02-21T06:02:14.107Z,70.90
2019-02-21T06:05:00.417Z,71.70
2019-02-21T06:07:46.465Z,72.50
2019-02-21T06:10:25.315Z,70.30
2019-02-21T06:13:04.404Z,70.60
2019-02-21T06:15:40.173Z,71.00
2019-02-21T06:18:10.116Z,71.00
2019-02-21T06:20:39.984Z,71.00
2019-02-21T06:23:10.318Z,72.10
2019-02-21T06:25:51.032Z,72.40
2019-02-21T06:28:17.981Z,72.60
2019-02-21T06:30:50.500Z,71.80
2019-02-21T06:33:18.733Z,71.90
2019-02-21T06:35:47.028Z,72.00
2019-02-21T06:38:15.309Z,71.90
2019-02-21T06:40:43.882Z,72.40
2019-02-21T06:43:12.345Z,72.00
2019-02-21T06:45:40.853Z,71.30
2019-02-21T06:48:09.072Z,71.20
2019-02-21T06:50:37.349Z,71.50
2019-02-21T06:53:05.580Z,71.40
2019-02-21T06:55:33.800Z,71.90
2019-02-21T06:58:02.062Z,72.00
2019-02-21T07:00:30.295Z,71.90
2019-02-21T07:02:58.598Z,72.30
2019-02-21T07:05:26.809Z,72.30
2019-02-21T07:07:55.342Z,72.40
2019-02-21T07:10:23.560Z,71.80
2019-02-21T07:12:51.803Z,72.40
2019-02-21T07:15:20.021Z,71.80
2019-02-21T07:17:49.505Z,71.60
2019-02-21T07:20:18.052Z,99.90
2019-02-21T07:22:46.276Z,99.90
2019-02-21T07:25:32.491Z,96.30
2019-02-21T07:28:11.360Z,91.40
2019-02-21T07:30:30.865Z,86.60
2019-02-21T07:32:59.080Z,67.90
2019-02-21T07:35:27.327Z,58.70
2019-02-21T07:37:55.546Z,60.10
2019-02-21T07:40:23.787Z,60.80
2019-02-21T07:42:52.284Z,61.30
2019-02-21T07:45:20.588Z,62.00
2019-02-21T07:47:48.807Z,63.90
2019-02-21T07:50:17.046Z,64.60
2019-02-21T07:52:45.294Z,66.10
2019-02-21T07:55:13.576Z,68.40
2019-02-21T07:57:41.819Z,69.00
2019-02-21T08:00:12.155Z,69.70
2019-02-21T08:02:40.381Z,70.40
2019-02-21T08:05:08.894Z,71.10
2019-02-21T08:07:37.134Z,69.90
2019-02-21T08:10:08.284Z,69.50
2019-02-21T08:12:36.504Z,69.50
2019-02-21T08:15:06.776Z,71.20
2019-02-21T08:17:35.032Z,71.50
2019-02-21T08:20:08.548Z,70.90
2019-02-21T08:22:33.274Z,71.30
2019-02-21T08:25:01.528Z,71.30
2019-02-21T08:27:29.800Z,70.80
2019-02-21T08:29:58.032Z,69.80
2019-02-21T08:32:27.896Z,68.80
2019-02-21T08:34:56.128Z,69.00
2019-02-21T08:37:24.352Z,70.10
2019-02-21T08:39:52.594Z,69.20
2019-02-21T08:42:20.818Z,68.10
2019-02-21T08:44:49.047Z,66.90
2019-02-21T08:47:17.276Z,66.80
2019-02-21T08:49:45.595Z,65.70
2019-02-21T08:52:14.117Z,66.20
2019-02-21T08:54:42.344Z,66.20
2019-02-21T08:57:10.564Z,67.10
2019-02-21T08:59:38.797Z,65.90
2019-02-21T09:02:07.027Z,65.00
2019-02-21T09:04:35.267Z,64.20
2019-02-21T09:07:03.485Z,63.60
2019-02-21T09:09:33.421Z,62.80
2019-02-21T09:12:02.006Z,62.70
2019-02-21T09:14:30.260Z,61.20
2019-02-21T09:16:58.757Z,61.20
2019-02-21T09:19:26.996Z,60.40
2019-02-21T09:21:55.233Z,59.70
2019-02-21T09:24:37.743Z,59.20
2019-02-21T09:26:53.423Z,58.60
2019-02-21T09:29:21.751Z,58.10
2019-02-21T09:31:49.982Z,57.80
2019-02-21T09:34:21.144Z,58.50
2019-02-21T09:36:48.205Z,57.80
2019-02-21T09:39:16.516Z,57.90
2019-02-21T09:41:44.754Z,58.10
2019-02-21T09:44:13.008Z,58.40
2019-02-21T09:46:41.244Z,58.00
2019-02-21T09:49:09.477Z,58.00
2019-02-21T09:51:38.601Z,58.30
2019-02-21T09:54:06.829Z,58.10
2019-02-21T09:56:35.068Z,57.90
2019-02-21T09:59:03.287Z,57.70
2019-02-21T10:01:31.528Z,56.80
2019-02-21T10:04:00.121Z,56.70
2019-02-21T10:06:28.389Z,56.70
2019-02-21T10:08:56.612Z,56.50
2019-02-21T10:11:24.885Z,56.10
2019-02-21T10:13:53.113Z,55.90
2019-02-21T10:16:21.364Z,56.00
2019-02-21T10:18:49.862Z,55.10
2019-02-21T10:21:18.135Z,55.00
2019-02-21T10:23:46.356Z,55.60
2019-02-21T10:26:14.601Z,55.10
2019-02-21T10:28:45.059Z,54.60
2019-02-21T10:31:13.112Z,55.30
2019-02-21T10:33:46.842Z,54.80
2019-02-21T10:36:11.600Z,54.90
2019-02-21T10:38:39.841Z,54.30
2019-02-21T10:41:08.949Z,54.20
2019-02-21T10:43:37.310Z,54.30
2019-02-21T10:46:05.530Z,54.00
2019-02-21T10:48:33.761Z,53.30
2019-02-21T10:51:01.996Z,53.40
2019-02-21T10:53:30.224Z,53.30
2019-02-21T10:55:58.463Z,53.30
2019-02-21T10:58:26.996Z,52.60
2019-02-21T11:00:55.224Z,53.10
2019-02-21T11:03:23.454Z,53.00
2019-02-21T11:05:51.672Z,53.20
2019-02-21T11:08:19.908Z,53.40
2019-02-21T11:10:48.152Z,53.10
2019-02-21T11:13:16.384Z,53.40
2019-02-21T11:15:44.612Z,53.40
2019-02-21T11:18:12.856Z,53.20
2019-02-21T11:20:41.079Z,52.90
2019-02-21T11:23:09.340Z,52.70
2019-02-21T11:25:37.578Z,52.70
2019-02-21T11:28:05.812Z,52.80
2019-02-21T11:30:34.134Z,52.20
2019-02-21T11:33:02.377Z,52.20
2019-02-21T11:35:30.666Z,51.50
2019-02-21T11:37:59.156Z,51.60
2019-02-21T11:40:27.383Z,51.60
2019-02-21T11:42:55.621Z,52.00
2019-02-21T11:45:23.856Z,51.70
2019-02-21T11:47:52.106Z,51.70
2019-02-21T11:50:20.750Z,52.00
2019-02-21T11:52:49.255Z,52.70
2019-02-21T11:55:20.384Z,51.50
2019-02-21T11:57:47.985Z,52.20
2019-02-21T12:00:27.727Z,52.00
2019-02-21T12:02:56.040Z,51.40
2019-02-21T12:05:32.106Z,51.00
2019-02-21T12:07:54.244Z,51.70
2019-02-21T12:10:22.553Z,51.10
2019-02-21T12:12:50.781Z,50.90
2019-02-21T12:15:19.003Z,50.40
2019-02-21T12:17:47.245Z,50.80
2019-02-21T12:20:16.804Z,49.90
2019-02-21T12:22:45.033Z,49.40
2019-02-21T12:25:24.032Z,49.90
2019-02-21T12:27:52.260Z,49.80
2019-02-21T12:30:20.848Z,50.50
2019-02-21T12:32:49.080Z,49.70
2019-02-21T12:35:28.824Z,49.40
2019-02-21T12:37:47.256Z,49.40
2019-02-21T12:40:18.087Z,48.90
2019-02-21T12:42:46.381Z,48.30
2019-02-21T12:45:16.936Z,48.20
2019-02-21T12:47:50.696Z,48.30
2019-02-21T12:50:15.122Z,47.70
2019-02-21T12:52:43.356Z,47.80
2019-02-21T12:55:11.743Z,47.60
2019-02-21T12:57:39.976Z,48.30
2019-02-21T13:00:13.041Z,48.40
2019-02-21T13:02:41.450Z,47.90
2019-02-21T13:05:09.672Z,47.70
2019-02-21T13:07:37.913Z,46.70
2019-02-21T13:10:09.276Z,46.10
2019-02-21T13:12:37.508Z,47.50
2019-02-21T13:15:08.512Z,47.80
2019-02-21T13:17:36.124Z,48.60
2019-02-21T13:20:07.084Z,47.90
2019-02-21T13:22:35.584Z,47.40
2019-02-21T13:25:04.547Z,47.90
2019-02-21T13:27:32.793Z,48.30
2019-02-21T13:30:01.015Z,48.30
2019-02-21T13:32:29.241Z,48.40
2019-02-21T13:34:57.465Z,47.60
2019-02-21T13:37:28.714Z,47.70
2019-02-21T13:39:55.676Z,47.20
2019-02-21T13:42:23.933Z,46.90
2019-02-21T13:44:52.140Z,46.70
2019-02-21T13:47:20.373Z,46.80
2019-02-21T13:49:48.791Z,46.50
2019-02-21T13:52:17.181Z,47.00
2019-02-21T13:54:45.408Z,46.70
2019-02-21T13:57:13.624Z,46.20
2019-02-21T13:59:41.860Z,45.90
2019-02-21T14:02:10.085Z,45.50
2019-02-21T14:04:38.317Z,45.60
2019-02-21T14:07:06.549Z,45.10
2019-02-21T14:09:34.781Z,45.10
2019-02-21T14:12:03.048Z,43.90
2019-02-21T14:14:31.301Z,43.20
2019-02-21T14:16:59.533Z,42.90
2019-02-21T14:19:27.759Z,42.30
2019-02-21T14:21:55.982Z,41.10
2019-02-21T14:24:35.974Z,41.80
2019-02-21T14:26:54.161Z,41.90
2019-02-21T14:29:22.424Z,43.10
2019-02-21T14:31:50.641Z,44.10
2019-02-21T14:34:18.872Z,43.80
2019-02-21T14:36:47.137Z,42.30
2019-02-21T14:39:15.741Z,40.80
2019-02-21T14:41:44.070Z,40.90
2019-02-21T14:44:12.809Z,39.60
2019-02-21T14:46:41.030Z,38.90
2019-02-21T14:49:09.336Z,39.00
2019-02-21T14:51:37.584Z,39.80
2019-02-21T14:54:05.816Z,39.70
2019-02-21T14:56:34.041Z,39.70
2019-02-21T14:59:02.284Z,38.70
2019-02-21T15:01:30.545Z,36.50
2019-02-21T15:03:59.120Z,36.60
2019-02-21T15:06:27.697Z,35.50
2019-02-21T15:08:56.056Z,62.70
2019-02-21T15:11:24.284Z,66.70
2019-02-21T15:13:52.545Z,60.70
2019-02-21T15:16:20.764Z,52.60
2019-02-21T15:18:49.006Z,56.50
2019-02-21T15:21:17.235Z,54.90
2019-02-21T15:23:45.464Z,51.80
2019-02-21T15:26:13.693Z,53.70
2019-02-21T15:28:42.231Z,53.90
2019-02-21T15:31:10.440Z,53.80
2019-02-21T15:33:38.686Z,53.90
2019-02-21T15:36:06.908Z,52.60
2019-02-21T15:38:35.154Z,53.30
2019-02-21T15:41:03.369Z,44.40
2019-02-21T15:43:31.665Z,43.80
2019-02-21T15:45:59.885Z,44.60
2019-02-21T15:48:28.139Z,46.20
2019-02-21T15:50:56.379Z,46.50
2019-02-21T15:53:24.596Z,47.40
2019-02-21T15:55:52.848Z,47.20
2019-02-21T15:58:21.068Z,47.20
2019-02-21T16:00:49.320Z,46.70
2019-02-21T16:03:17.549Z,47.60
2019-02-21T16:05:45.796Z,47.30
2019-02-21T16:08:14.016Z,47.60
2019-02-21T16:10:42.263Z,47.10
2019-02-21T16:13:10.937Z,46.40
2019-02-21T16:15:39.808Z,46.90
2019-02-21T16:18:08.032Z,47.40
2019-02-21T16:20:37.204Z,47.90
2019-02-21T16:23:05.423Z,48.10
2019-02-21T16:25:34.412Z,47.90
2019-02-21T16:28:02.632Z,48.00
2019-02-21T16:30:30.863Z,48.80
2019-02-21T16:32:59.084Z,48.20
2019-02-21T16:35:27.561Z,49.20
2019-02-21T16:37:55.834Z,49.50
2019-02-21T16:40:24.068Z,49.50
2019-02-21T16:42:52.298Z,49.40
2019-02-21T16:45:21.898Z,50.40
2019-02-21T16:47:50.435Z,49.30
2019-02-21T16:50:29.333Z,49.50
2019-02-21T16:52:48.960Z,50.10
2019-02-21T16:55:22.434Z,49.30
2019-02-21T16:57:50.659Z,49.50
2019-02-21T17:00:20.045Z,49.70
2019-02-21T17:02:48.264Z,49.30
2019-02-21T17:05:16.511Z,49.30
2019-02-21T17:07:44.805Z,49.70
2019-02-21T17:10:16.383Z,50.30
2019-02-21T17:12:44.609Z,50.10
2019-02-21T17:15:14.180Z,50.00
2019-02-21T17:17:42.408Z,50.30
2019-02-21T17:20:15.280Z,50.50
2019-02-21T17:22:43.499Z,50.40
2019-02-21T17:25:13.973Z,51.20
2019-02-21T17:27:42.766Z,51.20
2019-02-21T17:30:13.948Z,51.00
2019-02-21T17:32:42.476Z,51.10
2019-02-21T17:35:10.724Z,51.20
2019-02-21T17:37:38.940Z,51.30
2019-02-21T17:40:13.389Z,51.50
2019-02-21T17:42:41.605Z,51.00
2019-02-21T17:45:10.388Z,51.80
2019-02-21T17:47:38.618Z,51.70
2019-02-21T17:50:11.054Z,51.90
2019-02-21T17:52:39.514Z,51.80
2019-02-21T17:55:09.579Z,51.90
2019-02-21T17:57:38.065Z,52.30
2019-02-21T18:00:09.650Z,52.40
2019-02-21T18:02:37.866Z,52.30
2019-02-21T18:05:07.849Z,52.50
2019-02-21T18:07:36.806Z,52.70
2019-02-21T18:10:11.036Z,52.70
2019-02-21T18:12:39.256Z,72.70
2019-02-21T18:15:09.735Z,64.20
2019-02-21T18:17:37.960Z,56.90
2019-02-21T18:20:09.053Z,55.80
2019-02-21T18:22:36.587Z,49.40
2019-02-21T18:25:10.560Z,49.30
2019-02-21T18:27:39.041Z,50.00
2019-02-21T18:30:13.735Z,51.30
2019-02-21T18:32:41.960Z,51.60
2019-02-21T18:35:10.877Z,51.60
2019-02-21T18:37:47.045Z,52.50
2019-02-21T18:40:17.267Z,52.50
2019-02-21T18:42:42.729Z,54.30
2019-02-21T18:45:11.036Z,53.20
2019-02-21T18:47:39.275Z,54.50
2019-02-21T18:50:10.386Z,54.10
2019-02-21T18:52:38.237Z,54.50
2019-02-21T18:55:07.324Z,53.80
2019-02-21T18:57:35.549Z,54.10
2019-02-21T19:00:06.390Z,54.00
2019-02-21T19:02:34.613Z,53.90
2019-02-21T19:05:03.155Z,53.20
2019-02-21T19:07:31.363Z,53.90
2019-02-21T19:09:59.588Z,54.00
2019-02-21T19:12:27.824Z,54.60
2019-02-21T19:14:56.051Z,54.80
2019-02-21T19:17:24.372Z,54.40
2019-02-21T19:19:52.643Z,54.70
2019-02-21T19:22:21.000Z,54.70
2019-02-21T19:24:49.557Z,54.40
2019-02-21T19:27:17.884Z,55.50
2019-02-21T19:29:46.104Z,55.10
2019-02-21T19:32:14.465Z,55.70
2019-02-21T19:34:42.685Z,56.10
2019-02-21T19:37:10.929Z,56.40
2019-02-21T19:39:39.172Z,55.00
2019-02-21T19:42:07.396Z,56.40
2019-02-21T19:44:35.663Z,55.40
2019-02-21T19:47:03.915Z,55.50
2019-02-21T19:49:32.128Z,55.70
2019-02-21T19:52:00.464Z,55.70
2019-02-21T19:54:28.697Z,56.20
2019-02-21T19:56:56.935Z,56.70
2019-02-21T19:59:25.158Z,56.80
2019-02-21T20:01:53.576Z,57.50
2019-02-21T20:04:21.800Z,57.20
2019-02-21T20:06:50.040Z,57.30
2019-02-21T20:09:18.736Z,56.60
2019-02-21T20:11:46.995Z,56.30
2019-02-21T20:14:15.216Z,55.80
2019-02-21T20:16:45.811Z,56.90
2019-02-21T20:19:13.512Z,57.10
2019-02-21T20:21:41.779Z,55.40
2019-02-21T20:24:09.988Z,56.40
2019-02-21T20:26:38.223Z,57.20
2019-02-21T20:29:06.449Z,56.50
2019-02-21T20:31:34.807Z,57.20
2019-02-21T20:34:03.440Z,56.50
2019-02-21T20:36:31.998Z,56.10
2019-02-21T20:39:00.230Z,56.10
2019-02-21T20:41:28.480Z,55.80
2019-02-21T20:43:56.704Z,54.70
2019-02-21T20:46:24.950Z,54.70
2019-02-21T20:48:53.176Z,54.60
2019-02-21T20:51:21.433Z,54.40
2019-02-21T20:53:49.650Z,55.20
2019-02-21T20:56:17.900Z,55.90
2019-02-21T20:58:46.132Z,56.50
2019-02-21T21:01:14.536Z,56.20
2019-02-21T21:03:42.763Z,57.00
2019-02-21T21:06:11.073Z,56.50
2019-02-21T21:08:43.456Z,56.20
2019-02-21T21:11:09.348Z,56.50
2019-02-21T21:13:37.600Z,56.80
2019-02-21T21:16:05.826Z,56.40
2019-02-21T21:18:34.072Z,57.90
2019-02-21T21:21:02.469Z,56.70
2019-02-21T21:23:30.985Z,57.00
2019-02-21T21:25:59.517Z,56.80
2019-02-21T21:28:27.757Z,56.40
2019-02-21T21:30:56.016Z,57.20
2019-02-21T21:33:24.268Z,57.20
2019-02-21T21:35:52.486Z,57.40
2019-02-21T21:38:24.255Z,57.00
2019-02-21T21:40:50.681Z,57.00
2019-02-21T21:43:18.916Z,57.20
2019-02-21T21:45:47.464Z,57.70
2019-02-21T21:48:15.706Z,58.00
2019-02-21T21:50:43.927Z,57.10
2019-02-21T21:53:12.190Z,57.80
2019-02-21T21:55:40.410Z,57.70
2019-02-21T21:58:08.640Z,57.30
2019-02-21T22:00:36.877Z,57.10
2019-02-21T22:03:05.388Z,57.50
2019-02-21T22:05:33.620Z,58.20
2019-02-21T22:08:01.876Z,58.20
2019-02-21T22:10:30.108Z,58.20
2019-02-21T22:12:58.328Z,58.10
2019-02-21T22:15:26.561Z,58.40
2019-02-21T22:17:55.021Z,57.50
2019-02-21T22:20:23.261Z,57.00
2019-02-21T22:22:51.491Z,56.70
2019-02-21T22:25:19.720Z,56.70
2019-02-21T22:27:47.961Z,58.00
2019-02-21T22:30:18.479Z,57.30
2019-02-21T22:32:46.713Z,58.40
2019-02-21T22:35:14.936Z,58.10
2019-02-21T22:37:43.164Z,58.40
2019-02-21T22:40:16.404Z,58.80
2019-02-21T22:42:44.638Z,58.70
2019-02-21T22:45:12.862Z,57.90
2019-02-21T22:47:41.120Z,57.40
2019-02-21T22:50:19.306Z,57.60
2019-02-21T22:52:47.538Z,57.20
2019-02-21T22:55:15.763Z,58.40
2019-02-21T22:57:44.348Z,57.70
2019-02-21T23:00:32.536Z,58.00
2019-02-21T23:03:01.481Z,57.90
2019-02-21T23:05:54.394Z,58.00
2019-02-21T23:08:28.380Z,58.90
2019-02-21T23:10:56.604Z,58.40
2019-02-21T23:13:25.072Z,58.30
2019-02-21T23:15:53.568Z,58.00
2019-02-21T23:18:22.164Z,58.00
2019-02-21T23:20:50.396Z,58.50
2019-02-21T23:23:18.636Z,58.80
2019-02-21T23:25:46.862Z,59.40
2019-02-21T23:28:15.102Z,58.40
2019-02-21T23:30:43.324Z,58.60
2019-02-21T23:33:11.900Z,58.40
2019-02-21T23:35:40.123Z,58.80
2019-02-21T23:38:08.375Z,58.80
2019-02-21T23:40:37.169Z,58.80
2019-02-21T23:43:05.518Z,58.10
2019-02-21T23:45:33.740Z,58.30
2019-02-21T23:48:02.244Z,58.50
2019-02-21T23:50:30.493Z,59.30
2019-02-21T23:52:59.037Z,58.30
2019-02-21T23:55:27.368Z,58.90
2019-02-21T23:57:55.603Z,58.70
